Hampton Falls, NH (03844)

12:23 PM EDT on August 31, 2015 (GMT -0400)
Coburn Woods | | Change Station
CLOSE
Current Station
Personal Weather Station
Location: Hampton Falls, NH
Elevation: 95 ft
Nearby Weather Stations

Elev 95 ft 42.92 °N, 70.88 °W | Updated 3 seconds ago

Clear
Clear
84.6 °F
Feels Like 88 °F
N
0.0
Wind Variable Wind from WSW
Gusts 0.0 mph

Today
High -- | Low -- °F
--% Chance of Precip.
Yesterday
High -- | Low -- °F
Precip. -- in
6:06 AM 7:20 PM
Waning Gibbous, 95% visible
Pressure 29.92 in
Visibility 10.0 miles
Clouds Few 5000 ft
Few 25000 ft
Heat Index 88 °F
Dew Point 68 °F
Humidity 57%
Rainfall 0.00 in
Snow Depth Not available.
UV 8 out of 12
Pollen 8.50 out of 12
Air Quality Not available.
Flu Activity Not available.
METAR KPSM 311558Z 26009KT 230V290 10SM FEW050 FEW250 29/18 A2991 RMK AO2A SLP130 T02870175
Pressure 29.92 in
Visibility 10.0 miles
Clouds Few 5000 ft
Few 25000 ft
Heat Index 88 °F
Dew Point 68 °F
Humidity 57%
Rainfall 0.00 in
Snow Depth Not available.
UV 8 out of 12
Pollen 8.50 out of 12
Air Quality Not available.
Flu Activity Not available.
METAR KPSM 311558Z 26009KT 230V290 10SM FEW050 FEW250 29/18 A2991 RMK AO2A SLP130 T02870175

10-Day Weather Forecast

×

Almanac

Astronomy

Aug. 31, 2015 Rise Set
Actual Time
Civil Twilight
Nautical Twilight
Astronomical Twilight
Moon
Length of Visible Light
Length of Day
Tomorrow will be .
, % of the Moon is Illuminated

Today's Extremes

State Highs State Lows

Community

WunderPhotos

Upload Photos

1,851,302 photos uploaded!

WunderBlogs® & News

Nearby

Air Quality

  Air Quality AQ Index Pollutant
Not available.

Snow Depth

Station Depth Elevation

Earthquake Activity

City Distance Mag. Time & Date
Minimum magnitude displayed is 2.5.

Coastal Water Temperatures

Place Temperature

Stations

Nearby Weather Stations

Station Location Temp. Windchill Dew Point Humidity Wind Precip. Elev Updated Type